Time;durP1;ratioP1;P1;durP2;ratioP2;P2;SDS_P1;SDS_P2;PMS_P1;PMS_P2;Temp;Humidity;BMP_temperature;BMP_pressure;BME280_temperature;BME280_humidity;BME280_pressure;Samples;Min_cycle;Max_cycle;Signal;HPM_P1;HPM_P2
2021/01/06 00:00:25;;;;;;;9.17;7.43;;;1.30;82.60;;;;;;5040242;28;20466;-88
2021/01/06 00:02:54;;;;;;;10.20;7.70;;;1.40;83.00;;;;;;5045505;28;20460;-88
2021/01/06 00:05:28;;;;;;;10.40;7.93;;;1.30;82.70;;;;;;5014265;28;20467;-88
2021/01/06 00:08:06;;;;;;;7.97;7.20;;;1.40;82.80;;;;;;5057003;28;20444;-88
2021/01/06 00:13:23;;;;;;;9.40;6.60;;;1.30;82.60;;;;;;5041820;28;20464;-88
2021/01/06 00:16:02;;;;;;;8.23;6.13;;;1.30;81.60;;;;;;5040700;28;20459;-88
2021/01/06 00:18:42;;;;;;;9.90;7.27;;;1.30;81.10;;;;;;5039477;28;20463;-89
2021/01/06 00:21:14;;;;;;;9.90;6.90;;;1.30;81.50;;;;;;5039551;28;20480;-88
2021/01/06 00:23:43;;;;;;;8.50;6.80;;;1.30;81.70;;;;;;5051478;28;20463;-89
2021/01/06 00:26:11;;;;;;;8.87;7.00;;;1.20;81.10;;;;;;5052918;28;20453;-89
2021/01/06 00:28:41;;;;;;;8.67;6.60;;;1.20;82.00;;;;;;5041123;28;20501;-87
2021/01/06 00:31:11;;;;;;;8.53;6.67;;;1.30;82.10;;;;;;5029170;28;20473;-88
2021/01/06 00:33:39;;;;;;;10.83;7.70;;;1.40;81.30;;;;;;5024788;28;20450;-88
2021/01/06 00:36:12;;;;;;;8.40;6.27;;;1.30;81.00;;;;;;5041939;28;20457;-87
2021/01/06 00:38:39;;;;;;;8.10;6.93;;;1.20;81.10;;;;;;5043516;28;20849;-88
2021/01/06 00:41:08;;;;;;;10.33;6.80;;;1.30;80.80;;;;;;5028190;28;20447;-87
2021/01/06 00:43:35;;;;;;;7.70;6.13;;;1.20;80.80;;;;;;5038922;28;20448;-88
2021/01/06 00:46:06;;;;;;;7.90;6.63;;;1.20;81.20;;;;;;5023057;28;20546;-89
2021/01/06 00:48:36;;;;;;;7.37;6.13;;;1.20;81.70;;;;;;5024868;28;20459;-88
2021/01/06 00:51:06;;;;;;;8.60;6.60;;;1.20;81.80;;;;;;5028407;28;20477;-88
2021/01/06 00:53:36;;;;;;;10.00;7.30;;;1.10;82.40;;;;;;5042361;28;20454;-87
2021/01/06 00:56:03;;;;;;;6.90;6.17;;;1.10;83.10;;;;;;5041738;28;20812;-88
2021/01/06 00:58:31;;;;;;;9.00;7.47;;;1.20;83.30;;;;;;5038531;28;20538;-88
2021/01/06 01:01:01;;;;;;;9.83;7.33;;;1.30;82.50;;;;;;5020742;28;20791;-88
2021/01/06 01:03:28;;;;;;;9.87;7.13;;;1.20;82.60;;;;;;5021117;28;20478;-88
2021/01/06 01:06:06;;;;;;;7.90;6.70;;;1.10;82.40;;;;;;5039894;28;20473;-88
2021/01/06 01:08:49;;;;;;;7.50;6.30;;;1.20;82.20;;;;;;5018848;28;20448;-89
2021/01/06 01:11:21;;;;;;;9.03;7.40;;;1.10;82.10;;;;;;5030649;28;20444;-89
2021/01/06 01:13:51;;;;;;;6.70;6.00;;;1.20;82.20;;;;;;5038181;28;20539;-88
2021/01/06 01:16:20;;;;;;;12.20;6.87;;;1.10;81.90;;;;;;5038872;28;20535;-87
2021/01/06 01:18:47;;;;;;;7.53;5.90;;;1.10;81.90;;;;;;5025984;28;20436;-88
2021/01/06 01:21:20;;;;;;;8.57;6.07;;;1.10;82.10;;;;;;5029645;28;20796;-88
2021/01/06 01:23:47;;;;;;;6.43;5.70;;;1.20;82.90;;;;;;5021494;28;20544;-88
2021/01/06 01:26:22;;;;;;;7.70;5.80;;;1.10;81.80;;;;;;5022529;28;20498;-88
2021/01/06 01:28:53;;;;;;;6.53;5.70;;;1.10;82.40;;;;;;5040656;28;20487;-88
2021/01/06 01:31:23;;;;;;;6.73;6.03;;;1.20;82.60;;;;;;5047097;28;20438;-89
2021/01/06 01:33:55;;;;;;;8.73;6.30;;;1.10;82.10;;;;;;5026567;28;20452;-88
2021/01/06 01:36:28;;;;;;;7.27;5.73;;;1.10;82.10;;;;;;5039370;28;20505;-89
2021/01/06 01:38:57;;;;;;;6.30;5.60;;;1.10;81.80;;;;;;5041127;28;20479;-89
2021/01/06 01:41:34;;;;;;;7.30;6.00;;;1.00;81.60;;;;;;5023343;28;20462;-89
2021/01/06 01:44:02;;;;;;;6.53;5.90;;;1.10;81.70;;;;;;5040649;28;20455;-88
2021/01/06 01:47:06;;;;;;;6.93;6.20;;;1.10;81.30;;;;;;5042702;28;20873;-89
2021/01/06 01:49:50;;;;;;;6.90;5.60;;;1.10;80.40;;;;;;5041607;28;20459;-88
2021/01/06 01:52:24;;;;;;;6.90;5.87;;;1.10;80.60;;;;;;5035564;28;20485;-88
2021/01/06 01:55:02;;;;;;;6.10;5.17;;;1.00;80.50;;;;;;5028039;28;20477;-89
2021/01/06 01:57:36;;;;;;;8.50;6.10;;;1.10;80.60;;;;;;5029139;28;21192;-89
2021/01/06 02:00:09;;;;;;;7.20;5.77;;;1.10;80.30;;;;;;5049642;28;20447;-87
2021/01/06 02:02:46;;;;;;;8.57;5.83;;;1.10;80.30;;;;;;5048075;28;20454;-88
2021/01/06 02:05:22;;;;;;;6.97;5.00;;;1.20;80.00;;;;;;5050898;28;20480;-88
2021/01/06 02:07:57;;;;;;;6.40;5.37;;;1.10;79.80;;;;;;5031739;28;20456;-88
2021/01/06 02:10:29;;;;;;;7.00;5.47;;;1.20;79.90;;;;;;5051232;28;20440;-88
2021/01/06 02:13:06;;;;;;;6.40;5.60;;;1.10;79.40;;;;;;5051210;28;20466;-88
2021/01/06 02:15:39;;;;;;;7.13;6.33;;;1.10;80.00;;;;;;5045406;28;20510;-78
2021/01/06 02:18:08;;;;;;;5.60;5.10;;;1.10;79.70;;;;;;5032550;28;20444;-76
2021/01/06 02:20:35;;;;;;;7.37;5.70;;;1.10;79.80;;;;;;5034245;28;20476;-78
2021/01/06 02:23:03;;;;;;;6.80;5.23;;;1.10;79.90;;;;;;5044947;28;20454;-76
2021/01/06 02:25:32;;;;;;;6.00;4.80;;;1.10;79.70;;;;;;5037162;28;20456;-75
2021/01/06 02:28:00;;;;;;;5.87;5.07;;;1.10;79.50;;;;;;5037611;28;20507;-76
2021/01/06 02:30:27;;;;;;;5.90;4.63;;;1.00;80.10;;;;;;5036103;28;20447;-74
2021/01/06 02:32:55;;;;;;;6.70;5.10;;;1.00;79.70;;;;;;5036655;28;20493;-75
2021/01/06 02:35:22;;;;;;;7.60;5.70;;;1.00;80.00;;;;;;5034813;28;20452;-75
2021/01/06 02:37:50;;;;;;;5.40;4.50;;;1.00;80.20;;;;;;5030926;28;20459;-74
2021/01/06 02:40:19;;;;;;;8.37;5.63;;;1.10;80.00;;;;;;5042801;28;20457;-74
2021/01/06 02:42:47;;;;;;;6.97;5.10;;;1.00;80.00;;;;;;5037255;28;20438;-75
2021/01/06 02:45:16;;;;;;;4.70;4.03;;;1.00;79.70;;;;;;5037088;28;20583;-76
2021/01/06 02:47:47;;;;;;;5.33;4.70;;;1.00;79.80;;;;;;5037013;28;20456;-75
2021/01/06 02:50:15;;;;;;;5.23;4.50;;;1.00;79.80;;;;;;5035984;28;20452;-75
2021/01/06 02:52:49;;;;;;;5.37;4.50;;;0.90;79.60;;;;;;5035855;28;20474;-75
2021/01/06 02:55:18;;;;;;;6.00;4.40;;;1.00;80.00;;;;;;5035886;28;20989;-76
2021/01/06 02:57:45;;;;;;;5.50;5.00;;;1.00;80.00;;;;;;5035574;28;21015;-77
2021/01/06 03:00:15;;;;;;;6.40;5.17;;;1.10;80.00;;;;;;5033541;28;20439;-76
2021/01/06 03:02:43;;;;;;;7.00;4.80;;;1.00;79.60;;;;;;5035122;28;20451;-76
2021/01/06 03:05:18;;;;;;;5.00;4.50;;;1.10;79.60;;;;;;5039340;28;20830;-80
2021/01/06 03:07:45;;;;;;;5.50;4.50;;;1.00;79.50;;;;;;5042623;28;20455;-79
2021/01/06 03:10:16;;;;;;;4.73;4.23;;;1.10;79.60;;;;;;5043932;28;20468;-75
2021/01/06 03:12:45;;;;;;;5.43;4.67;;;1.10;79.30;;;;;;5037462;28;20469;-75
2021/01/06 03:15:14;;;;;;;5.40;4.90;;;1.10;79.30;;;;;;5038649;28;20445;-75
2021/01/06 03:17:41;;;;;;;4.90;4.50;;;1.10;79.20;;;;;;5038245;28;20798;-77
2021/01/06 03:20:11;;;;;;;6.03;4.80;;;1.10;79.20;;;;;;5037462;28;20453;-79
2021/01/06 03:22:40;;;;;;;5.20;4.70;;;1.00;79.10;;;;;;5036034;28;20452;-75
2021/01/06 03:25:11;;;;;;;5.07;4.10;;;1.10;79.10;;;;;;5034822;28;20519;-77
2021/01/06 03:27:41;;;;;;;6.17;4.83;;;1.00;78.90;;;;;;5031287;28;20447;-78
2021/01/06 03:30:12;;;;;;;6.63;4.77;;;0.90;79.00;;;;;;5036562;28;20455;-76
2021/01/06 03:32:45;;;;;;;5.20;4.00;;;0.90;79.50;;;;;;5044857;28;20448;-78
2021/01/06 03:35:20;;;;;;;5.00;4.40;;;1.00;79.70;;;;;;5042766;28;20604;-77
2021/01/06 03:37:52;;;;;;;5.83;4.70;;;0.90;79.60;;;;;;5040983;28;20457;-78
2021/01/06 03:40:24;;;;;;;5.87;4.53;;;1.00;79.90;;;;;;5039837;28;20469;-80
2021/01/06 03:42:53;;;;;;;5.40;4.70;;;0.90;79.70;;;;;;5040507;28;20443;-82
2021/01/06 03:45:24;;;;;;;5.60;4.57;;;1.00;80.00;;;;;;5040568;28;21025;-75
2021/01/06 03:48:00;;;;;;;4.47;4.00;;;0.90;80.40;;;;;;5035933;28;20435;-76
2021/01/06 03:50:32;;;;;;;5.17;4.67;;;0.90;81.90;;;;;;5035309;28;20537;-75
2021/01/06 03:53:06;;;;;;;5.13;4.63;;;0.90;82.20;;;;;;5035059;28;20512;-75
2021/01/06 03:55:52;;;;;;;5.20;4.70;;;0.90;82.40;;;;;;5028038;28;20444;-80
2021/01/06 03:58:29;;;;;;;6.00;4.50;;;0.90;81.90;;;;;;5033099;28;20845;-77
2021/01/06 04:01:08;;;;;;;5.53;4.90;;;0.90;82.90;;;;;;5033696;28;20546;-75
2021/01/06 04:03:46;;;;;;;6.00;4.47;;;0.90;82.50;;;;;;5033460;28;20814;-75
2021/01/06 04:06:13;;;;;;;6.30;5.10;;;0.90;84.10;;;;;;5033480;28;20475;-76
2021/01/06 04:08:47;;;;;;;5.90;4.73;;;0.80;84.20;;;;;;5029401;28;20488;-77
2021/01/06 04:11:17;;;;;;;6.73;5.30;;;0.90;84.60;;;;;;5033660;28;20452;-76
2021/01/06 04:13:43;;;;;;;5.30;4.80;;;0.90;84.50;;;;;;5031277;28;20474;-75
2021/01/06 04:16:13;;;;;;;4.67;4.00;;;0.90;83.70;;;;;;5033554;28;20509;-79
2021/01/06 04:18:39;;;;;;;5.03;4.47;;;0.80;82.90;;;;;;5029153;28;20547;-75
2021/01/06 04:21:06;;;;;;;6.47;5.07;;;0.80;82.40;;;;;;5036004;28;20458;-77
2021/01/06 04:23:33;;;;;;;5.30;4.73;;;0.80;84.30;;;;;;5035056;28;20458;-75
2021/01/06 04:26:00;;;;;;;5.90;4.47;;;0.80;83.80;;;;;;5035908;28;20486;-77
2021/01/06 04:28:31;;;;;;;6.97;4.57;;;0.90;82.90;;;;;;5032814;28;20450;-77
2021/01/06 04:30:59;;;;;;;6.57;5.03;;;0.90;83.70;;;;;;5032224;28;20447;-76
2021/01/06 04:33:29;;;;;;;5.63;4.47;;;0.80;83.80;;;;;;5032648;28;20447;-78
2021/01/06 04:35:57;;;;;;;5.23;4.60;;;0.90;84.60;;;;;;5032113;28;20447;-76
2021/01/06 04:38:26;;;;;;;8.00;5.10;;;0.90;84.10;;;;;;5031662;28;20447;-76
2021/01/06 04:40:56;;;;;;;6.07;5.00;;;0.80;84.70;;;;;;5033511;28;20442;-77
2021/01/06 04:43:28;;;;;;;5.10;4.47;;;0.80;85.20;;;;;;5034677;28;20452;-77
2021/01/06 04:46:13;;;;;;;4.87;4.37;;;0.80;85.20;;;;;;5031577;28;20455;-76
2021/01/06 04:48:55;;;;;;;7.10;5.57;;;0.80;85.20;;;;;;5032663;28;20471;-78
2021/01/06 04:51:45;;;;;;;5.13;4.60;;;0.80;85.70;;;;;;5031979;28;20536;-76
2021/01/06 04:54:44;;;;;;;5.70;4.20;;;0.80;85.90;;;;;;5028080;28;20442;-76
2021/01/06 04:57:30;;;;;;;5.73;4.80;;;0.80;86.00;;;;;;5031259;28;20439;-75
2021/01/06 05:00:23;;;;;;;5.60;4.97;;;0.80;85.70;;;;;;5032000;28;20479;-76
2021/01/06 05:03:13;;;;;;;5.70;4.80;;;0.70;86.00;;;;;;5031469;28;20465;-75
2021/01/06 05:05:52;;;;;;;6.30;4.70;;;0.80;86.50;;;;;;5029849;28;20475;-75
2021/01/06 05:08:26;;;;;;;5.47;4.97;;;0.80;86.50;;;;;;5032241;28;20946;-76
2021/01/06 05:10:59;;;;;;;6.33;5.17;;;0.80;86.90;;;;;;5031596;28;20983;-75
2021/01/06 05:13:32;;;;;;;6.83;5.23;;;0.80;87.70;;;;;;5033445;28;20464;-75
2021/01/06 05:16:01;;;;;;;5.87;5.00;;;0.80;86.70;;;;;;5032018;28;20470;-76
2021/01/06 05:18:35;;;;;;;7.33;5.37;;;0.80;87.00;;;;;;5032025;28;20448;-76
2021/01/06 05:21:06;;;;;;;5.10;4.60;;;0.80;86.80;;;;;;5032290;28;20439;-76
2021/01/06 05:23:36;;;;;;;5.60;5.00;;;0.80;87.20;;;;;;5032452;28;20440;-76
2021/01/06 05:26:05;;;;;;;5.20;4.03;;;0.80;87.40;;;;;;5031825;28;20462;-75
2021/01/06 05:28:32;;;;;;;5.80;4.40;;;0.90;87.80;;;;;;5031334;28;20463;-75
2021/01/06 05:30:59;;;;;;;5.63;5.00;;;0.90;86.20;;;;;;5032205;28;20466;-76
2021/01/06 05:33:30;;;;;;;7.07;5.07;;;0.90;87.40;;;;;;5032853;28;20455;-75
2021/01/06 05:35:57;;;;;;;5.27;4.10;;;0.90;87.40;;;;;;5032013;28;20519;-77
2021/01/06 05:38:24;;;;;;;5.73;4.77;;;0.90;87.60;;;;;;5032029;28;20503;-76
2021/01/06 05:40:51;;;;;;;9.20;4.87;;;0.90;87.20;;;;;;5032743;28;20535;-79
2021/01/06 05:43:40;;;;;;;5.70;5.03;;;0.90;86.80;;;;;;5031227;28;20469;-74
2021/01/06 05:46:14;;;;;;;6.40;4.90;;;0.90;85.40;;;;;;5026509;28;20467;-76
2021/01/06 05:48:44;;;;;;;4.83;3.83;;;0.90;86.70;;;;;;5032616;28;20435;-77
2021/01/06 05:51:18;;;;;;;6.07;4.60;;;0.90;87.40;;;;;;5032019;28;20462;-77
2021/01/06 05:53:54;;;;;;;5.03;4.43;;;1.00;86.50;;;;;;5031462;28;20934;-76
2021/01/06 05:56:36;;;;;;;5.43;4.60;;;1.00;86.30;;;;;;5038857;28;20445;-81
2021/01/06 05:59:17;;;;;;;5.73;4.60;;;0.90;86.10;;;;;;5041130;28;20459;-82
2021/01/06 06:01:50;;;;;;;4.97;4.50;;;0.90;86.80;;;;;;5041094;28;21020;-84
2021/01/06 06:04:29;;;;;;;4.40;3.57;;;0.80;86.40;;;;;;5054601;28;20517;-81
2021/01/06 06:07:14;;;;;;;5.67;5.03;;;0.90;87.10;;;;;;5044227;28;20536;-83
2021/01/06 06:10:05;;;;;;;6.73;5.30;;;1.00;87.40;;;;;;5036581;28;20445;-83
2021/01/06 06:13:02;;;;;;;6.57;5.00;;;0.90;86.30;;;;;;5036121;28;20470;-80
2021/01/06 06:15:47;;;;;;;4.70;4.10;;;0.90;86.90;;;;;;4993873;28;20487;-81
2021/01/06 06:18:54;;;;;;;4.60;3.77;;;0.90;87.00;;;;;;5053718;28;20428;-82
2021/01/06 06:21:36;;;;;;;5.10;4.53;;;0.80;87.80;;;;;;5039276;28;20531;-80
2021/01/06 06:24:20;;;;;;;6.73;4.40;;;0.80;88.00;;;;;;5024003;28;20457;-80
2021/01/06 06:27:01;;;;;;;4.93;4.23;;;0.80;88.30;;;;;;5040541;28;21110;-81
2021/01/06 06:29:34;;;;;;;5.43;4.57;;;0.80;89.00;;;;;;5037254;28;20547;-80
2021/01/06 06:32:01;;;;;;;5.47;4.87;;;0.80;90.20;;;;;;5039688;28;20456;-81
2021/01/06 06:34:31;;;;;;;6.30;5.17;;;0.90;89.00;;;;;;5025659;28;20453;-81
2021/01/06 06:37:22;;;;;;;5.53;4.47;;;0.90;88.00;;;;;;5048577;28;20489;-82
2021/01/06 06:40:08;;;;;;;5.37;4.60;;;0.90;88.50;;;;;;5051675;28;20468;-81
2021/01/06 06:42:46;;;;;;;5.67;5.00;;;0.90;88.50;;;;;;5045245;28;20451;-82
2021/01/06 06:45:35;;;;;;;5.67;4.90;;;0.90;89.00;;;;;;5050289;28;20441;-83
2021/01/06 06:48:13;;;;;;;6.43;4.77;;;0.90;88.00;;;;;;5049142;28;20451;-83
2021/01/06 06:50:51;;;;;;;5.60;4.80;;;0.90;88.90;;;;;;5052961;28;20465;-84
2021/01/06 06:53:25;;;;;;;6.63;5.93;;;0.80;89.30;;;;;;5055541;28;20467;-83
2021/01/06 06:56:02;;;;;;;6.60;5.00;;;0.90;89.40;;;;;;5055095;28;20464;-84
2021/01/06 06:58:40;;;;;;;5.90;5.30;;;0.80;89.00;;;;;;5047779;28;20437;-82
2021/01/06 07:01:10;;;;;;;7.73;5.97;;;0.80;89.20;;;;;;5043139;28;20908;-82
2021/01/06 07:03:40;;;;;;;5.17;4.67;;;0.90;90.30;;;;;;5040985;28;20502;-80
2021/01/06 07:06:11;;;;;;;6.00;5.37;;;0.90;90.10;;;;;;5041589;28;20455;-81
2021/01/06 07:08:46;;;;;;;6.33;5.57;;;0.80;89.80;;;;;;5027176;28;20447;-81
2021/01/06 07:11:26;;;;;;;6.90;5.43;;;0.80;89.30;;;;;;5041329;28;20442;-81
2021/01/06 07:14:01;;;;;;;6.73;5.40;;;0.80;90.20;;;;;;5041116;28;20461;-82
2021/01/06 07:16:34;;;;;;;7.80;5.63;;;0.80;90.20;;;;;;5044012;28;20448;-81
2021/01/06 07:19:26;;;;;;;7.10;5.33;;;0.80;90.70;;;;;;5047061;28;20458;-81
2021/01/06 07:21:58;;;;;;;11.00;6.20;;;0.80;90.60;;;;;;5046005;28;20447;-82
2021/01/06 07:24:27;;;;;;;7.57;5.47;;;0.80;90.30;;;;;;5054661;28;20444;-85
2021/01/06 07:26:57;;;;;;;7.73;6.13;;;0.80;90.10;;;;;;5056071;28;20456;-80
2021/01/06 07:29:31;;;;;;;5.60;5.00;;;0.80;90.10;;;;;;5047112;28;20439;-80
2021/01/06 07:32:02;;;;;;;5.63;4.80;;;0.80;90.60;;;;;;5045568;28;20446;-81
2021/01/06 07:34:42;;;;;;;8.30;6.07;;;0.80;90.60;;;;;;5007013;28;20451;-80
2021/01/06 07:37:23;;;;;;;8.90;6.53;;;0.80;90.30;;;;;;5039675;28;20450;-82
2021/01/06 07:39:58;;;;;;;8.03;7.10;;;0.70;91.00;;;;;;5040646;28;21013;-82
2021/01/06 07:42:33;;;;;;;7.10;5.60;;;0.80;90.30;;;;;;5041509;28;20458;-80
2021/01/06 07:45:27;;;;;;;8.30;7.13;;;0.80;90.10;;;;;;5032044;28;20446;-82
2021/01/06 07:48:02;;;;;;;7.30;6.27;;;0.80;89.90;;;;;;5034646;28;20442;-82
2021/01/06 07:50:30;;;;;;;8.23;6.90;;;0.90;90.20;;;;;;5044286;28;20461;-82
2021/01/06 07:53:02;;;;;;;7.60;6.40;;;0.90;89.30;;;;;;5045820;28;20452;-81
2021/01/06 07:55:35;;;;;;;9.67;7.10;;;0.90;89.30;;;;;;5056628;28;20570;-81
2021/01/06 07:58:06;;;;;;;7.50;6.00;;;0.90;89.00;;;;;;5038712;28;20455;-80
2021/01/06 08:00:38;;;;;;;7.47;5.93;;;0.90;88.40;;;;;;5044958;28;20476;-84
2021/01/06 08:03:22;;;;;;;8.80;6.70;;;1.00;88.30;;;;;;5041567;28;20440;-83
2021/01/06 08:05:57;;;;;;;7.30;6.50;;;1.00;88.00;;;;;;5034006;28;20493;-82
2021/01/06 08:08:26;;;;;;;7.03;6.10;;;0.90;87.40;;;;;;5045860;28;20460;-82
2021/01/06 08:11:05;;;;;;;7.80;6.23;;;1.10;88.20;;;;;;5042886;28;20455;-81
2021/01/06 08:13:34;;;;;;;7.57;5.67;;;1.20;86.70;;;;;;5042169;28;20479;-84
2021/01/06 08:16:16;;;;;;;11.03;7.60;;;1.20;86.70;;;;;;5025705;28;20459;-80
2021/01/06 08:18:59;;;;;;;8.30;6.60;;;1.30;86.20;;;;;;5035529;28;20455;-81
2021/01/06 08:21:29;;;;;;;10.70;6.80;;;1.30;85.80;;;;;;5021313;28;20451;-81
2021/01/06 08:24:10;;;;;;;7.93;6.50;;;1.30;86.50;;;;;;5039770;28;20449;-81
2021/01/06 08:26:47;;;;;;;6.30;5.67;;;1.30;85.80;;;;;;5041703;28;20974;-82
2021/01/06 08:29:18;;;;;;;9.60;6.73;;;1.40;85.30;;;;;;5041945;28;20459;-81
2021/01/06 08:31:46;;;;;;;8.67;6.73;;;1.30;84.40;;;;;;5041443;28;20538;-80
2021/01/06 08:34:29;;;;;;;7.43;6.53;;;1.30;85.00;;;;;;5041775;28;20450;-86
2021/01/06 08:37:00;;;;;;;8.40;7.37;;;1.40;86.60;;;;;;5039469;28;20482;-81
2021/01/06 08:39:29;;;;;;;9.20;6.63;;;1.30;85.60;;;;;;5044873;28;20466;-81
2021/01/06 08:42:06;;;;;;;7.37;6.67;;;1.40;85.30;;;;;;5045303;28;20475;-82
2021/01/06 08:44:38;;;;;;;7.20;6.50;;;1.40;85.20;;;;;;5036622;28;20449;-81
2021/01/06 08:47:11;;;;;;;8.10;6.13;;;1.40;86.00;;;;;;5041354;28;20931;-81
2021/01/06 08:49:42;;;;;;;8.20;6.83;;;1.30;84.90;;;;;;5039410;28;21064;-81
2021/01/06 08:52:29;;;;;;;10.13;8.07;;;1.50;85.50;;;;;;5040188;28;20447;-85
2021/01/06 08:55:01;;;;;;;8.67;7.47;;;1.40;85.30;;;;;;5035372;28;20455;-81
2021/01/06 08:57:33;;;;;;;7.73;6.83;;;1.50;85.70;;;;;;5043781;28;20505;-80
2021/01/06 09:00:15;;;;;;;8.70;6.67;;;1.50;85.40;;;;;;5036391;28;20506;-82
2021/01/06 09:02:47;;;;;;;8.77;7.47;;;1.50;85.90;;;;;;5039793;28;21133;-82
2021/01/06 09:05:49;;;;;;;9.77;7.73;;;1.50;85.50;;;;;;5039637;28;20448;-83
2021/01/06 09:08:18;;;;;;;7.20;6.33;;;1.60;86.10;;;;;;5036530;28;20557;-82
2021/01/06 09:11:12;;;;;;;9.47;7.00;;;1.50;85.40;;;;;;5040774;28;20466;-85
2021/01/06 09:13:42;;;;;;;8.50;6.80;;;1.50;85.90;;;;;;5037706;28;20475;-83
2021/01/06 09:16:17;;;;;;;10.70;7.87;;;1.40;86.20;;;;;;5045379;28;20458;-83
2021/01/06 09:18:50;;;;;;;9.20;7.83;;;1.30;87.60;;;;;;5044809;28;20450;-84
2021/01/06 09:24:07;;;;;;;11.23;8.20;;;1.40;88.30;;;;;;5039408;28;20588;-86
2021/01/06 09:26:37;;;;;;;9.70;7.17;;;1.60;88.40;;;;;;5043531;28;20479;-87
2021/01/06 09:29:08;;;;;;;9.43;7.87;;;1.50;86.70;;;;;;5047315;28;20559;-89
2021/01/06 09:31:42;;;;;;;9.90;8.43;;;1.50;88.80;;;;;;5058400;28;20506;-88
2021/01/06 09:34:15;;;;;;;11.60;8.53;;;1.60;88.00;;;;;;5046806;28;20823;-87
2021/01/06 09:36:44;;;;;;;9.00;7.87;;;1.90;87.70;;;;;;5030807;28;20452;-88
2021/01/06 09:39:18;;;;;;;11.53;8.63;;;1.80;84.90;;;;;;5041915;28;20543;-87
2021/01/06 09:41:45;;;;;;;10.50;7.50;;;1.70;86.80;;;;;;5041006;28;20964;-87
2021/01/06 09:44:13;;;;;;;10.50;7.83;;;1.60;85.30;;;;;;5037773;28;20475;-89
2021/01/06 09:49:55;;;;;;;8.87;7.77;;;1.70;86.30;;;;;;5040937;28;20456;-88
2021/01/06 09:58:08;;;;;;;9.30;8.03;;;1.90;85.20;;;;;;5041932;28;20451;-88
2021/01/06 10:00:48;;;;;;;10.33;8.37;;;1.90;85.50;;;;;;5029393;28;20483;-88
2021/01/06 10:03:18;;;;;;;10.43;8.00;;;2.10;84.00;;;;;;5040322;28;20462;-88
2021/01/06 10:05:59;;;;;;;9.80;8.33;;;1.90;84.20;;;;;;5032511;28;20476;-87
2021/01/06 10:08:36;;;;;;;11.37;8.17;;;1.80;84.80;;;;;;5036977;28;20448;-87
2021/01/06 10:11:11;;;;;;;12.10;8.93;;;1.70;87.50;;;;;;5040191;28;20443;-88
2021/01/06 10:14:18;;;;;;;11.13;8.73;;;1.80;88.80;;;;;;5041029;28;20474;-88
2021/01/06 10:16:53;;;;;;;11.00;8.37;;;1.80;89.30;;;;;;5044350;28;20477;-88
2021/01/06 10:19:43;;;;;;;11.40;7.57;;;1.90;89.60;;;;;;5046095;28;20459;-87
2021/01/06 10:22:30;;;;;;;11.23;8.90;;;1.80;90.30;;;;;;5037670;28;21018;-87
2021/01/06 10:25:21;;;;;;;11.23;9.07;;;1.90;87.70;;;;;;5039763;28;20455;-88
2021/01/06 10:28:01;;;;;;;11.80;8.67;;;1.70;89.20;;;;;;5033737;28;20479;-87
2021/01/06 10:30:32;;;;;;;11.10;8.53;;;1.60;91.80;;;;;;5048268;28;20469;-86
2021/01/06 10:33:21;;;;;;;12.40;9.33;;;1.60;91.10;;;;;;5043535;28;20466;-87
2021/01/06 10:36:25;;;;;;;11.43;9.53;;;1.70;91.70;;;;;;5044459;28;20462;-89
2021/01/06 10:39:07;;;;;;;15.00;11.00;;;1.80;91.10;;;;;;5031610;28;20459;-87
2021/01/06 10:41:43;;;;;;;11.87;9.60;;;1.80;90.80;;;;;;5050426;28;20493;-88
2021/01/06 10:44:35;;;;;;;12.10;9.80;;;1.80;91.20;;;;;;5050522;28;20463;-85
2021/01/06 10:47:39;;;;;;;13.10;10.53;;;1.70;90.70;;;;;;5045817;28;20460;-89
2021/01/06 10:50:50;;;;;;;12.43;10.00;;;1.70;91.80;;;;;;5039926;28;20435;-90
2021/01/06 10:53:25;;;;;;;14.10;10.40;;;1.70;91.10;;;;;;5051258;28;20464;-89
2021/01/06 10:56:04;;;;;;;14.57;11.17;;;1.90;91.40;;;;;;5058478;28;20505;-88
2021/01/06 10:58:47;;;;;;;18.70;12.60;;;2.10;92.20;;;;;;5052308;28;20529;-89
2021/01/06 11:02:07;;;;;;;15.97;11.93;;;2.20;91.10;;;;;;5066089;28;20447;-90
2021/01/06 11:05:02;;;;;;;14.17;11.00;;;1.90;90.80;;;;;;5059534;28;20422;-89
2021/01/06 11:08:07;;;;;;;15.67;11.57;;;1.70;91.70;;;;;;5053826;28;20472;-87
2021/01/06 11:11:36;;;;;;;15.03;12.77;;;1.50;92.50;;;;;;5041770;28;20486;-90
2021/01/06 11:14:29;;;;;;;15.47;12.40;;;1.70;94.30;;;;;;5023787;28;20506;-89
2021/01/06 11:17:26;;;;;;;14.23;11.83;;;1.70;93.10;;;;;;5043115;28;20485;-88
2021/01/06 11:19:56;;;;;;;14.97;11.60;;;1.80;92.60;;;;;;5042299;28;20535;-89
2021/01/06 11:22:43;;;;;;;17.80;13.13;;;1.90;92.40;;;;;;5024554;28;20450;-88
2021/01/06 11:25:48;;;;;;;15.27;10.83;;;2.00;93.70;;;;;;5025187;28;21025;-87
2021/01/06 11:28:47;;;;;;;15.53;11.43;;;2.20;92.20;;;;;;5042351;28;20444;-87
2021/01/06 11:34:27;;;;;;;16.60;11.20;;;2.30;90.90;;;;;;5034371;28;20496;-87
2021/01/06 11:39:53;;;;;;;15.20;12.30;;;2.20;90.70;;;;;;5039546;28;20463;-89
2021/01/06 11:42:54;;;;;;;13.90;10.80;;;2.20;91.40;;;;;;5040873;28;20463;-88
2021/01/06 11:45:27;;;;;;;13.37;11.30;;;2.20;91.80;;;;;;5047185;28;20482;-90
2021/01/06 11:47:58;;;;;;;14.93;11.23;;;2.10;91.50;;;;;;5038414;28;20542;-87
2021/01/06 11:50:48;;;;;;;15.13;10.03;;;2.00;92.30;;;;;;5064841;28;20445;-87
2021/01/06 11:53:29;;;;;;;15.57;11.57;;;1.90;91.90;;;;;;5075306;28;20521;-88
2021/01/06 11:56:05;;;;;;;15.97;11.70;;;1.90;92.70;;;;;;5051630;28;20455;-88
2021/01/06 11:58:57;;;;;;;16.43;11.20;;;1.90;94.50;;;;;;5045680;28;20543;-84
2021/01/06 12:01:51;;;;;;;15.73;11.17;;;1.90;94.80;;;;;;5035310;28;20473;-88
2021/01/06 12:04:50;;;;;;;12.63;10.27;;;2.00;93.00;;;;;;5036168;28;20448;-87
2021/01/06 12:07:35;;;;;;;16.50;11.23;;;2.00;92.90;;;;;;5039660;28;20484;-88
2021/01/06 12:10:16;;;;;;;13.60;11.00;;;1.90;92.30;;;;;;5042274;28;20460;-90
2021/01/06 12:13:06;;;;;;;14.43;10.90;;;1.90;93.30;;;;;;5042325;28;20518;-89
2021/01/06 12:15:55;;;;;;;16.13;9.87;;;2.00;93.20;;;;;;5042099;28;20451;-88
2021/01/06 12:18:46;;;;;;;13.97;11.27;;;2.10;91.60;;;;;;5032325;28;20460;-89
2021/01/06 12:46:48;;;;;;;12.87;10.53;;;2.20;92.60;;;;;;5036800;28;20529;-89
2021/01/06 12:49:41;;;;;;;12.57;10.10;;;2.20;92.20;;;;;;5024974;28;20458;-79
2021/01/06 12:52:30;;;;;;;13.90;10.80;;;2.30;92.70;;;;;;5043585;28;20447;-81
2021/01/06 12:55:10;;;;;;;18.53;11.30;;;2.10;91.50;;;;;;5040003;28;20484;-89
2021/01/06 12:57:47;;;;;;;12.53;10.37;;;2.10;92.70;;;;;;5044145;28;20455;-87
2021/01/06 13:00:36;;;;;;;15.50;10.63;;;2.00;93.10;;;;;;5024563;28;20444;-89
2021/01/06 13:03:49;;;;;;;15.03;11.03;;;2.00;95.00;;;;;;5043945;28;20453;-89
2021/01/06 13:06:29;;;;;;;13.83;10.13;;;1.90;94.60;;;;;;5043382;28;20581;-87
2021/01/06 13:09:39;;;;;;;14.33;10.03;;;2.00;93.90;;;;;;5043517;28;20468;-88
2021/01/06 13:12:29;;;;;;;13.80;11.60;;;2.20;93.60;;;;;;5024322;28;20470;-88
2021/01/06 13:15:11;;;;;;;14.80;11.13;;;2.10;94.20;;;;;;5043199;28;20853;-89
2021/01/06 13:17:46;;;;;;;14.80;11.27;;;2.10;95.40;;;;;;5029564;28;21044;-88
2021/01/06 13:20:55;;;;;;;17.60;12.33;;;2.20;95.50;;;;;;5046434;28;20457;-89
2021/01/06 13:23:45;;;;;;;13.20;11.37;;;2.10;93.70;;;;;;5026756;28;20481;-88
2021/01/06 13:27:05;;;;;;;13.60;11.20;;;2.10;92.80;;;;;;5041619;28;20551;-88
2021/01/06 13:29:39;;;;;;;14.33;11.40;;;2.30;94.50;;;;;;5050186;28;20508;-89
2021/01/06 13:32:37;;;;;;;14.27;11.00;;;2.30;93.10;;;;;;5038289;28;20440;-88
2021/01/06 13:42:13;;;;;;;15.67;12.37;;;2.40;92.40;;;;;;5037084;28;20457;-91
2021/01/06 13:44:50;;;;;;;13.33;10.93;;;2.40;93.10;;;;;;5045589;28;20483;-90
2021/01/06 13:58:30;;;;;;;13.90;11.00;;;2.30;94.30;;;;;;5058027;28;20479;-91
2021/01/06 14:01:25;;;;;;;13.87;10.47;;;2.20;94.10;;;;;;5065360;28;20485;-91
2021/01/06 14:08:02;;;;;;;14.40;11.17;;;2.30;93.80;;;;;;5073643;28;20500;-92
2021/01/06 14:10:39;;;;;;;14.70;10.80;;;2.10;93.20;;;;;;5047286;28;20452;-78
2021/01/06 14:13:31;;;;;;;14.87;11.30;;;2.20;94.00;;;;;;5050154;28;20516;-80
2021/01/06 14:16:23;;;;;;;16.07;11.30;;;2.20;94.60;;;;;;5003377;28;20517;-79
2021/01/06 14:19:18;;;;;;;13.33;10.83;;;2.20;94.60;;;;;;5043489;28;20456;-81
2021/01/06 14:22:06;;;;;;;13.30;10.23;;;2.20;93.60;;;;;;5046106;28;20452;-87
2021/01/06 14:24:39;;;;;;;16.50;11.63;;;2.10;93.60;;;;;;5045841;28;20519;-83
2021/01/06 14:27:27;;;;;;;14.90;11.40;;;2.10;94.90;;;;;;5042422;28;20492;-82
2021/01/06 14:30:13;;;;;;;13.53;9.70;;;2.20;95.70;;;;;;5041978;28;20448;-83
2021/01/06 14:32:49;;;;;;;11.90;9.50;;;2.10;93.90;;;;;;5033618;28;20478;-82
2021/01/06 14:35:40;;;;;;;13.80;10.50;;;2.10;93.90;;;;;;5051087;28;20485;-82
2021/01/06 14:38:37;;;;;;;13.03;8.90;;;2.00;95.70;;;;;;5046916;28;20471;-81
2021/01/06 14:41:43;;;;;;;11.60;9.00;;;2.10;95.40;;;;;;5050976;28;20468;-82
2021/01/06 14:44:24;;;;;;;13.17;8.47;;;2.00;95.10;;;;;;5044565;28;20442;-82
2021/01/06 14:47:15;;;;;;;11.13;8.40;;;1.90;96.30;;;;;;5048893;28;20460;-84
2021/01/06 14:49:58;;;;;;;11.93;8.70;;;1.90;97.20;;;;;;5041267;28;20461;-83
2021/01/06 14:52:29;;;;;;;12.10;8.90;;;2.00;97.60;;;;;;5020957;28;20478;-83
2021/01/06 14:55:00;;;;;;;12.40;8.97;;;1.80;96.50;;;;;;5046073;28;20458;-82